createdAt,value
2018-09-17T00:01:12.323Z,99.90
2018-09-17T00:03:40.602Z,99.90
2018-09-17T00:06:08.847Z,99.90
2018-09-17T00:08:37.074Z,99.90
2018-09-17T00:11:05.330Z,99.90
2018-09-17T00:13:33.567Z,99.90
2018-09-17T00:16:01.838Z,99.90
2018-09-17T00:18:30.173Z,99.90
2018-09-17T00:20:58.443Z,99.90
2018-09-17T00:23:26.725Z,99.90
2018-09-17T00:25:55.003Z,99.90
2018-09-17T00:28:23.275Z,99.90
2018-09-17T00:30:51.577Z,99.90
2018-09-17T00:33:19.839Z,99.90
2018-09-17T00:35:48.173Z,99.90
2018-09-17T00:38:16.390Z,99.90
2018-09-17T00:40:44.663Z,99.90
2018-09-17T00:43:12.947Z,99.90
2018-09-17T00:45:41.211Z,99.90
2018-09-17T00:48:09.445Z,99.90
2018-09-17T00:50:37.999Z,99.90
2018-09-17T00:53:06.226Z,99.90
2018-09-17T00:55:34.489Z,99.90
2018-09-17T00:58:02.728Z,99.90
2018-09-17T01:00:30.974Z,99.90
2018-09-17T01:02:59.258Z,99.90
2018-09-17T01:05:27.529Z,99.90
2018-09-17T01:07:55.780Z,99.90
2018-09-17T01:10:24.045Z,99.90
2018-09-17T01:12:52.287Z,99.90
2018-09-17T01:15:20.545Z,99.90
2018-09-17T01:17:48.762Z,99.90
2018-09-17T01:20:17.127Z,99.90
2018-09-17T01:22:45.403Z,99.90
2018-09-17T01:25:13.655Z,99.90
2018-09-17T01:27:41.950Z,99.90
2018-09-17T01:30:10.207Z,99.90
2018-09-17T01:32:38.506Z,99.90
2018-09-17T01:35:06.784Z,99.90
2018-09-17T01:37:35.128Z,99.90
2018-09-17T01:40:03.400Z,99.90
2018-09-17T01:42:31.671Z,99.90
2018-09-17T01:44:59.927Z,99.90
2018-09-17T01:47:28.239Z,99.90
2018-09-17T01:49:56.455Z,99.90
2018-09-17T01:52:24.730Z,99.90
2018-09-17T01:54:52.979Z,99.90
2018-09-17T01:57:21.214Z,99.90
2018-09-17T01:59:49.451Z,99.90
2018-09-17T02:02:17.715Z,99.90
2018-09-17T02:04:45.977Z,99.90
2018-09-17T02:07:14.199Z,99.90
2018-09-17T02:09:42.523Z,99.90
2018-09-17T02:12:12.263Z,99.90
2018-09-17T02:14:41.259Z,99.90
2018-09-17T02:17:09.509Z,99.90
2018-09-17T02:19:38.319Z,99.90
2018-09-17T02:22:06.889Z,99.90
2018-09-17T02:24:35.153Z,99.90
2018-09-17T02:27:03.467Z,99.90
2018-09-17T02:29:31.724Z,99.90
2018-09-17T02:31:59.980Z,99.90
2018-09-17T02:34:34.785Z,99.90
2018-09-17T02:37:08.499Z,99.90
2018-09-17T02:39:38.367Z,99.90
2018-09-17T02:42:08.759Z,99.90
2018-09-17T02:44:37.489Z,99.90
2018-09-17T02:47:05.969Z,99.90
2018-09-17T02:49:34.255Z,99.90
2018-09-17T02:52:02.607Z,99.90
2018-09-17T02:54:30.938Z,99.90
2018-09-17T02:56:59.203Z,99.90
2018-09-17T02:59:27.478Z,99.90
2018-09-17T03:01:55.866Z,99.90
2018-09-17T03:04:24.115Z,99.90
2018-09-17T03:06:52.411Z,99.90
2018-09-17T03:09:20.662Z,99.90
2018-09-17T03:11:48.981Z,99.90
2018-09-17T03:14:21.183Z,99.90
2018-09-17T03:17:00.861Z,99.90
2018-09-17T03:19:29.156Z,99.90
2018-09-17T03:21:57.407Z,99.90
2018-09-17T03:24:25.741Z,99.90
2018-09-17T03:26:53.911Z,99.90
2018-09-17T03:29:22.179Z,99.90
2018-09-17T03:31:50.454Z,99.90
2018-09-17T03:34:18.710Z,99.90
2018-09-17T03:36:46.999Z,99.90
2018-09-17T03:39:15.257Z,99.90
2018-09-17T03:41:43.526Z,99.90
2018-09-17T03:44:11.789Z,99.90
2018-09-17T03:46:40.088Z,99.90
2018-09-17T03:49:08.310Z,99.90
2018-09-17T03:51:36.563Z,99.90
2018-09-17T03:54:04.797Z,99.90
2018-09-17T03:56:33.127Z,99.90
2018-09-17T03:59:01.448Z,99.90
2018-09-17T04:01:29.699Z,99.90
2018-09-17T04:03:58.071Z,99.90
2018-09-17T04:06:26.310Z,99.90
2018-09-17T04:08:54.576Z,99.90
2018-09-17T04:11:22.863Z,99.90
2018-09-17T04:13:51.144Z,99.90
2018-09-17T04:16:19.419Z,99.90
2018-09-17T04:18:47.720Z,99.90
2018-09-17T04:21:16.007Z,99.90
2018-09-17T04:23:44.294Z,99.90
2018-09-17T04:26:13.087Z,99.90
2018-09-17T04:28:41.451Z,99.90
2018-09-17T04:31:09.716Z,99.90
2018-09-17T04:33:39.491Z,99.90
2018-09-17T04:36:08.238Z,99.90
2018-09-17T04:38:36.490Z,99.90
2018-09-17T04:41:04.895Z,99.90
2018-09-17T04:43:33.148Z,99.90
2018-09-17T04:46:01.415Z,99.90
2018-09-17T04:48:30.138Z,99.90
2018-09-17T04:50:58.423Z,99.90
2018-09-17T04:53:26.729Z,99.90
2018-09-17T04:55:55.031Z,99.90
2018-09-17T04:58:23.287Z,99.90
2018-09-17T05:00:51.560Z,99.90
2018-09-17T05:03:19.878Z,99.90
2018-09-17T05:05:48.125Z,99.90
2018-09-17T05:08:16.375Z,99.90
2018-09-17T05:10:44.583Z,99.90
2018-09-17T05:13:12.872Z,99.90
2018-09-17T05:15:41.032Z,99.90
2018-09-17T05:18:09.295Z,99.90
2018-09-17T05:20:37.656Z,99.90
2018-09-17T05:23:05.866Z,99.90
2018-09-17T05:25:34.145Z,99.90
2018-09-17T05:28:02.400Z,99.90
2018-09-17T05:30:30.675Z,99.90
2018-09-17T05:32:58.982Z,99.90
2018-09-17T05:35:27.286Z,99.90
2018-09-17T05:37:55.530Z,99.90
2018-09-17T05:40:23.842Z,99.90
2018-09-17T05:42:52.165Z,99.90
2018-09-17T05:45:20.409Z,99.90
2018-09-17T05:47:48.735Z,99.90
2018-09-17T05:50:17.006Z,99.90
2018-09-17T05:52:45.291Z,99.90
2018-09-17T05:55:13.554Z,99.90
2018-09-17T05:57:41.847Z,99.90
2018-09-17T06:00:10.830Z,99.90
2018-09-17T06:02:39.131Z,99.90
2018-09-17T06:05:07.441Z,99.90
2018-09-17T06:07:35.679Z,99.90
2018-09-17T06:10:08.222Z,99.90
2018-09-17T06:12:36.548Z,99.90
2018-09-17T06:15:05.211Z,99.90
2018-09-17T06:17:33.612Z,99.90
2018-09-17T06:20:01.803Z,99.90
2018-09-17T06:22:30.039Z,99.90
2018-09-17T06:24:58.314Z,99.90
2018-09-17T06:27:26.543Z,99.90
2018-09-17T06:29:54.816Z,99.90
2018-09-17T06:32:23.056Z,99.90
2018-09-17T06:34:51.337Z,99.90
2018-09-17T06:37:19.659Z,99.90
2018-09-17T06:39:47.948Z,99.90
2018-09-17T06:42:16.242Z,99.90
2018-09-17T06:44:44.588Z,99.90
2018-09-17T06:47:13.180Z,99.90
2018-09-17T06:49:41.572Z,99.90
2018-09-17T06:52:09.966Z,99.90
2018-09-17T06:54:38.307Z,99.90
2018-09-17T06:57:06.654Z,99.90
2018-09-17T06:59:34.927Z,99.90
2018-09-17T07:02:03.206Z,99.90
2018-09-17T07:04:31.635Z,99.90
2018-09-17T07:06:59.947Z,99.90
2018-09-17T07:09:28.243Z,99.90
2018-09-17T07:11:56.602Z,99.90
2018-09-17T07:14:24.904Z,99.90
2018-09-17T07:16:53.171Z,99.90
2018-09-17T07:19:21.465Z,99.90
2018-09-17T07:21:49.822Z,99.90
2018-09-17T07:24:18.079Z,99.90
2018-09-17T07:26:46.354Z,99.90
2018-09-17T07:29:17.231Z,99.90
2018-09-17T07:31:45.620Z,99.90
2018-09-17T07:34:13.847Z,99.90
2018-09-17T07:36:42.157Z,99.90
2018-09-17T07:39:11.638Z,99.90
2018-09-17T07:41:40.029Z,99.90
2018-09-17T07:44:08.936Z,99.90
2018-09-17T07:46:37.428Z,99.90
2018-09-17T07:49:05.732Z,99.90
2018-09-17T07:51:34.023Z,99.90
2018-09-17T07:54:02.285Z,99.90
2018-09-17T07:56:30.632Z,99.90
2018-09-17T07:58:59.013Z,99.90
2018-09-17T08:01:30.257Z,99.90
2018-09-17T08:04:07.101Z,99.90
2018-09-17T08:06:36.104Z,99.90
2018-09-17T08:09:12.391Z,99.90
2018-09-17T08:11:41.328Z,99.90
2018-09-17T08:14:09.595Z,99.90
2018-09-17T08:16:37.850Z,99.90
2018-09-17T08:19:06.134Z,99.90
2018-09-17T08:21:34.490Z,99.90
2018-09-17T08:24:02.747Z,99.90
2018-09-17T08:26:31.010Z,99.90
2018-09-17T08:28:59.261Z,99.90
2018-09-17T08:31:27.539Z,99.90
2018-09-17T08:33:56.618Z,99.90
2018-09-17T08:36:25.184Z,99.90
2018-09-17T08:38:53.527Z,99.90
2018-09-17T08:41:21.998Z,99.90
2018-09-17T08:43:50.295Z,99.90
2018-09-17T08:46:18.619Z,99.90
2018-09-17T08:48:46.895Z,99.90
2018-09-17T08:51:15.294Z,99.90
2018-09-17T08:53:43.715Z,99.90
2018-09-17T08:56:17.331Z,99.90
2018-09-17T08:58:50.930Z,99.90
2018-09-17T09:01:24.462Z,99.90
2018-09-17T09:03:58.191Z,99.90
2018-09-17T09:06:33.676Z,99.90
2018-09-17T09:09:02.464Z,99.90
2018-09-17T09:11:36.181Z,99.90
2018-09-17T09:14:07.435Z,99.90
2018-09-17T09:16:36.065Z,99.90
2018-09-17T09:19:04.449Z,99.90
2018-09-17T09:21:32.775Z,99.90
2018-09-17T09:24:01.093Z,99.90
2018-09-17T09:26:32.492Z,99.90
2018-09-17T09:29:01.895Z,99.90
2018-09-17T09:31:30.703Z,99.90
2018-09-17T09:34:00.725Z,99.90
2018-09-17T09:36:29.404Z,99.90
2018-09-17T09:38:59.580Z,99.90
2018-09-17T09:41:39.008Z,99.90
2018-09-17T09:44:10.729Z,99.90
2018-09-17T09:46:40.029Z,99.90
2018-09-17T09:49:08.635Z,99.90
2018-09-17T09:51:37.044Z,99.90
2018-09-17T09:54:05.545Z,99.90
2018-09-17T09:56:33.885Z,99.90
2018-09-17T09:59:02.328Z,99.90
2018-09-17T10:01:37.046Z,99.90
2018-09-17T10:04:10.863Z,99.90
2018-09-17T10:06:39.195Z,99.90
2018-09-17T10:09:13.770Z,99.90
2018-09-17T10:11:47.831Z,99.60
2018-09-17T10:14:21.568Z,99.40
2018-09-17T10:16:55.561Z,99.00
2018-09-17T10:19:25.264Z,98.40
2018-09-17T10:21:53.667Z,98.20
2018-09-17T10:24:22.223Z,97.50
2018-09-17T10:26:50.554Z,97.10
2018-09-17T10:29:19.589Z,96.70
2018-09-17T10:31:48.035Z,97.20
2018-09-17T10:34:16.402Z,96.40
2018-09-17T10:36:44.858Z,95.50
2018-09-17T10:42:05.968Z,94.90
2018-09-17T10:44:35.147Z,94.00
2018-09-17T10:47:05.210Z,93.50
2018-09-17T10:49:34.347Z,93.00
2018-09-17T10:52:02.824Z,92.80
2018-09-17T10:54:33.560Z,91.90
2018-09-17T10:57:02.577Z,91.60
2018-09-17T10:59:31.002Z,91.10
2018-09-17T11:02:00.184Z,90.50
2018-09-17T11:04:29.511Z,90.00
2018-09-17T11:07:01.879Z,90.20
2018-09-17T11:09:35.040Z,90.50
2018-09-17T11:12:25.717Z,90.20
2018-09-17T11:16:20.390Z,89.40
2018-09-17T11:21:05.598Z,87.00
2018-09-17T11:23:35.821Z,84.80
2018-09-17T11:26:07.841Z,84.30
2018-09-17T11:28:40.221Z,84.70
2018-09-17T11:31:09.096Z,83.50
2018-09-17T11:33:38.645Z,84.50
2018-09-17T11:36:09.790Z,82.00
2018-09-17T11:38:38.951Z,80.50
2018-09-17T11:41:14.760Z,81.10
2018-09-17T11:43:50.279Z,79.70
2018-09-17T11:46:25.019Z,78.40
2018-09-17T11:48:54.707Z,77.40
2018-09-17T11:51:23.943Z,75.00
2018-09-17T11:53:52.613Z,75.50
2018-09-17T11:56:21.011Z,75.40
2018-09-17T11:58:49.405Z,75.40
2018-09-17T12:01:23.051Z,75.20
2018-09-17T12:03:56.728Z,74.10
2018-09-17T12:06:30.418Z,74.40
2018-09-17T12:08:58.683Z,72.00
2018-09-17T12:11:27.074Z,73.50
2018-09-17T12:13:55.351Z,71.50
2018-09-17T12:16:24.001Z,71.10
2018-09-17T12:18:52.533Z,71.90
2018-09-17T12:21:20.958Z,71.50
2018-09-17T12:23:49.493Z,72.80
2018-09-17T12:26:18.467Z,71.90
2018-09-17T12:28:47.051Z,70.80
2018-09-17T12:31:21.067Z,72.30
2018-09-17T12:33:49.987Z,72.90
2018-09-17T12:36:20.264Z,73.20
2018-09-17T12:38:51.046Z,72.40
2018-09-17T12:41:19.589Z,71.80
2018-09-17T12:43:48.002Z,71.60
2018-09-17T12:46:16.323Z,72.40
2018-09-17T12:48:44.914Z,71.90
2018-09-17T12:51:19.035Z,72.20
2018-09-17T12:53:47.362Z,72.80
2018-09-17T12:56:15.652Z,72.00
2018-09-17T12:58:43.972Z,71.10
2018-09-17T13:01:12.273Z,70.30
2018-09-17T13:03:40.551Z,70.50
2018-09-17T13:06:08.911Z,70.00
2018-09-17T13:08:37.219Z,69.10
2018-09-17T13:11:05.533Z,68.20
2018-09-17T13:13:33.842Z,68.50
2018-09-17T13:16:02.144Z,67.00
2018-09-17T13:18:30.395Z,65.80
2018-09-17T13:20:58.656Z,65.80
2018-09-17T13:23:27.048Z,66.60
2018-09-17T13:25:55.399Z,67.20
2018-09-17T13:28:23.831Z,67.10
2018-09-17T13:30:52.127Z,66.90
2018-09-17T13:33:20.481Z,66.00
2018-09-17T13:35:48.781Z,65.20
2018-09-17T13:38:17.060Z,65.10
2018-09-17T13:40:45.405Z,65.50
2018-09-17T13:43:28.415Z,65.50
2018-09-17T13:45:56.775Z,65.40
2018-09-17T13:48:25.216Z,65.40
2018-09-17T13:50:53.860Z,63.70
2018-09-17T13:53:23.224Z,62.40
2018-09-17T13:55:51.559Z,63.30
2018-09-17T13:58:20.671Z,62.90
2018-09-17T14:00:51.544Z,63.90
2018-09-17T14:03:20.107Z,61.50
2018-09-17T14:05:48.407Z,60.90
2018-09-17T14:08:16.857Z,61.10
2018-09-17T14:10:45.128Z,62.30
2018-09-17T14:13:13.401Z,62.10
2018-09-17T14:15:45.885Z,62.40
2018-09-17T14:18:14.195Z,61.40
2018-09-17T14:20:42.482Z,60.20
2018-09-17T14:23:11.229Z,60.90
2018-09-17T14:25:40.009Z,60.30
2018-09-17T14:30:47.920Z,60.60
2018-09-17T14:33:23.694Z,60.00
2018-09-17T14:35:54.695Z,60.10
2018-09-17T14:38:24.056Z,60.30
2018-09-17T14:40:52.853Z,59.60
2018-09-17T14:43:23.305Z,60.20
2018-09-17T14:45:55.168Z,59.50
2018-09-17T14:48:23.877Z,59.70
2018-09-17T14:50:52.366Z,59.00
2018-09-17T14:53:20.891Z,59.90
2018-09-17T14:58:42.546Z,60.50
2018-09-17T15:01:12.922Z,60.60
2018-09-17T15:03:43.363Z,59.90
2018-09-17T15:06:11.931Z,60.10
2018-09-17T15:08:40.371Z,59.60
2018-09-17T15:11:08.682Z,58.20
2018-09-17T15:13:37.013Z,58.50
2018-09-17T15:16:06.410Z,59.60
2018-09-17T15:18:34.767Z,60.60
2018-09-17T15:21:03.485Z,59.70
2018-09-17T15:23:31.850Z,59.10
2018-09-17T15:26:00.184Z,59.70
2018-09-17T15:28:28.708Z,59.50
2018-09-17T15:30:56.963Z,59.60
2018-09-17T15:33:28.896Z,59.30
2018-09-17T15:35:59.625Z,59.20
2018-09-17T15:38:28.791Z,59.10
2018-09-17T15:40:56.973Z,58.90
2018-09-17T15:43:25.276Z,58.70
2018-09-17T15:45:53.523Z,57.60
2018-09-17T15:48:22.007Z,57.60
2018-09-17T15:50:50.324Z,57.70
2018-09-17T15:53:18.589Z,57.30
2018-09-17T15:55:46.909Z,57.50
2018-09-17T15:58:15.306Z,56.80
2018-09-17T16:00:43.561Z,56.50
2018-09-17T16:03:11.795Z,57.20
2018-09-17T16:05:40.064Z,57.50
2018-09-17T16:08:08.329Z,57.90
2018-09-17T16:10:36.604Z,58.00
2018-09-17T16:13:04.889Z,58.10
2018-09-17T16:15:33.190Z,57.70
2018-09-17T16:18:01.480Z,59.20
2018-09-17T16:20:29.738Z,59.10
2018-09-17T16:22:58.002Z,60.00
2018-09-17T16:25:26.295Z,60.20
2018-09-17T16:27:54.563Z,60.30
2018-09-17T16:30:22.861Z,60.50
2018-09-17T16:32:51.122Z,61.10
2018-09-17T16:35:19.412Z,61.90
2018-09-17T16:37:47.703Z,62.50
2018-09-17T16:40:15.999Z,62.90
2018-09-17T16:42:44.417Z,64.10
2018-09-17T16:45:12.720Z,65.80
2018-09-17T16:47:40.959Z,66.50
2018-09-17T16:50:09.260Z,67.00
2018-09-17T16:52:37.549Z,67.70
2018-09-17T16:55:05.922Z,68.20
2018-09-17T16:57:34.199Z,69.10
2018-09-17T17:00:02.558Z,69.60
2018-09-17T17:02:30.912Z,70.60
2018-09-17T17:04:59.287Z,70.90
2018-09-17T17:07:27.501Z,71.40
2018-09-17T17:09:55.827Z,71.70
2018-09-17T17:12:24.140Z,72.30
2018-09-17T17:14:52.424Z,72.70
2018-09-17T17:17:21.243Z,73.50
2018-09-17T17:19:50.076Z,74.90
2018-09-17T17:22:18.648Z,75.20
2018-09-17T17:24:46.790Z,75.40
2018-09-17T17:27:15.071Z,77.10
2018-09-17T17:29:43.427Z,78.00
2018-09-17T17:32:11.669Z,78.70
2018-09-17T17:34:39.957Z,79.20
2018-09-17T17:37:08.317Z,80.20
2018-09-17T17:39:36.705Z,81.50
2018-09-17T17:42:04.963Z,82.40
2018-09-17T17:44:33.228Z,83.80
2018-09-17T17:47:01.547Z,84.60
2018-09-17T17:49:29.833Z,85.10
2018-09-17T17:51:58.296Z,85.30
2018-09-17T17:54:26.500Z,86.60
2018-09-17T17:56:54.772Z,88.00
2018-09-17T17:59:23.162Z,88.50
2018-09-17T18:01:51.431Z,89.00
2018-09-17T18:04:19.729Z,89.60
2018-09-17T18:06:48.274Z,89.80
2018-09-17T18:09:16.436Z,90.60
2018-09-17T18:11:44.703Z,90.60
2018-09-17T18:14:13.024Z,91.00
2018-09-17T18:16:41.296Z,91.50
2018-09-17T18:19:09.535Z,92.10
2018-09-17T18:21:37.800Z,91.80
2018-09-17T18:24:07.127Z,91.70
2018-09-17T18:26:35.369Z,92.20
2018-09-17T18:29:03.596Z,92.70
2018-09-17T18:31:31.845Z,93.30
2018-09-17T18:34:00.143Z,94.10
2018-09-17T18:36:28.438Z,94.20
2018-09-17T18:38:56.729Z,94.40
2018-09-17T18:41:24.935Z,94.30
2018-09-17T18:43:53.220Z,94.80
2018-09-17T18:46:21.461Z,95.40
2018-09-17T18:48:49.700Z,95.70
2018-09-17T18:51:18.003Z,95.90
2018-09-17T18:53:46.289Z,97.20
2018-09-17T18:56:14.551Z,97.30
2018-09-17T18:58:42.773Z,97.40
2018-09-17T19:01:11.024Z,97.70
2018-09-17T19:03:39.269Z,98.20
2018-09-17T19:06:07.609Z,98.40
2018-09-17T19:08:35.887Z,98.20
2018-09-17T19:11:04.170Z,98.70
2018-09-17T19:13:32.418Z,98.80
2018-09-17T19:16:00.724Z,98.20
2018-09-17T19:18:28.936Z,99.00
2018-09-17T19:20:57.519Z,98.80
2018-09-17T19:23:30.719Z,98.30
2018-09-17T19:25:59.002Z,99.00
2018-09-17T19:28:32.595Z,99.40
2018-09-17T19:31:00.818Z,99.30
2018-09-17T19:33:29.122Z,99.30
2018-09-17T19:35:57.409Z,99.80
2018-09-17T19:38:30.843Z,99.90
2018-09-17T19:40:59.132Z,99.90
2018-09-17T19:43:27.407Z,99.90
2018-09-17T19:46:01.112Z,99.90
2018-09-17T19:48:29.416Z,99.90
2018-09-17T19:51:03.031Z,99.90
2018-09-17T19:53:31.363Z,99.90
2018-09-17T19:55:59.713Z,99.90
2018-09-17T19:58:33.392Z,99.90
2018-09-17T20:01:01.648Z,99.90
2018-09-17T20:03:30.972Z,99.90
2018-09-17T20:06:06.110Z,99.90
2018-09-17T20:08:34.572Z,99.90
2018-09-17T20:11:02.855Z,99.90
2018-09-17T20:13:31.632Z,99.90
2018-09-17T20:16:01.391Z,99.90
2018-09-17T20:18:30.823Z,99.90
2018-09-17T20:20:59.296Z,99.90
2018-09-17T20:23:27.580Z,99.90
2018-09-17T20:25:56.913Z,99.90
2018-09-17T20:28:25.583Z,99.90
2018-09-17T20:30:54.190Z,99.90
2018-09-17T20:33:25.472Z,99.90
2018-09-17T20:35:53.883Z,99.90
2018-09-17T20:38:22.295Z,99.90
2018-09-17T20:40:50.688Z,99.90
2018-09-17T20:43:19.210Z,99.90
2018-09-17T20:45:47.511Z,99.90
2018-09-17T20:48:15.891Z,99.90
2018-09-17T20:50:44.612Z,99.90
2018-09-17T20:53:12.883Z,99.90
2018-09-17T20:55:41.228Z,99.90
2018-09-17T20:58:10.415Z,99.90
2018-09-17T21:00:38.683Z,99.90
2018-09-17T21:03:06.925Z,99.90
2018-09-17T21:05:35.171Z,99.90
2018-09-17T21:08:03.439Z,99.90
2018-09-17T21:10:31.719Z,99.90
2018-09-17T21:13:00.005Z,99.90
2018-09-17T21:15:28.215Z,99.90
2018-09-17T21:17:56.457Z,99.90
2018-09-17T21:20:25.900Z,99.90
2018-09-17T21:22:54.146Z,99.90
2018-09-17T21:25:22.504Z,99.90
2018-09-17T21:27:50.630Z,99.90
2018-09-17T21:30:18.912Z,99.90
2018-09-17T21:32:47.185Z,99.90
2018-09-17T21:35:15.447Z,99.90
2018-09-17T21:37:43.655Z,99.90
2018-09-17T21:40:11.898Z,99.90
2018-09-17T21:42:40.148Z,99.90
2018-09-17T21:45:09.577Z,99.90
2018-09-17T21:47:37.859Z,99.90
2018-09-17T21:50:06.142Z,99.90
2018-09-17T21:52:34.444Z,99.90
2018-09-17T21:55:02.629Z,99.90
2018-09-17T21:57:30.851Z,99.90
2018-09-17T21:59:59.100Z,99.90
2018-09-17T22:02:27.353Z,99.90
2018-09-17T22:04:55.647Z,99.90
2018-09-17T22:07:26.520Z,99.90
2018-09-17T22:09:54.834Z,99.90
2018-09-17T22:12:23.097Z,99.90
2018-09-17T22:14:51.436Z,99.90
2018-09-17T22:17:19.834Z,99.90
2018-09-17T22:19:48.132Z,99.90
2018-09-17T22:22:16.354Z,99.90
2018-09-17T22:24:44.815Z,99.90
2018-09-17T22:27:13.047Z,99.90
2018-09-17T22:29:41.261Z,99.90
2018-09-17T22:32:09.503Z,99.90
2018-09-17T22:34:37.782Z,99.90
2018-09-17T22:37:06.651Z,99.90
2018-09-17T22:39:34.964Z,99.90
2018-09-17T22:42:03.261Z,99.90
2018-09-17T22:44:31.492Z,99.90
2018-09-17T22:46:59.825Z,99.90
2018-09-17T22:49:28.325Z,99.90
2018-09-17T22:51:56.621Z,99.90
2018-09-17T22:54:24.925Z,99.90
2018-09-17T22:56:53.179Z,99.90
2018-09-17T22:59:21.435Z,99.90
2018-09-17T23:01:49.961Z,99.90
2018-09-17T23:04:18.251Z,99.90
2018-09-17T23:06:46.517Z,99.90
2018-09-17T23:09:14.792Z,99.90
2018-09-17T23:11:43.118Z,99.90
2018-09-17T23:14:12.234Z,99.90
2018-09-17T23:16:40.541Z,99.90
2018-09-17T23:19:08.803Z,99.90
2018-09-17T23:21:37.074Z,99.90
2018-09-17T23:24:05.339Z,99.90
2018-09-17T23:26:33.693Z,99.90
2018-09-17T23:29:01.944Z,99.90
2018-09-17T23:31:30.209Z,99.90
2018-09-17T23:33:58.604Z,99.90
2018-09-17T23:36:26.853Z,99.90
2018-09-17T23:38:55.151Z,99.90
2018-09-17T23:41:23.488Z,99.90
2018-09-17T23:43:51.818Z,99.90
2018-09-17T23:46:20.160Z,99.90
2018-09-17T23:48:48.495Z,99.90
2018-09-17T23:51:16.863Z,99.90
2018-09-17T23:53:45.140Z,99.90
2018-09-17T23:56:13.433Z,99.90
2018-09-17T23:58:41.846Z,99.90
